Aviation Digital Data Service (ADDS)

Output produced by METARs form (0927 UTC 17 November 2018)
found at http://www.aviationweather.gov/metar/data/
 
OIAA 170900Z 31012KT 1500 BR BKN020 20/18 Q1020
TAF OIAA 170530Z 1706/1812 28004MPS 2000 BR NSC 
     BECMG 1709/17010 6000 SCT030 
     TEMPO 1710/1714 32007MPS 
     BECMG 1718/1719 3000 BR 
     TEMPO 1723/1724 1000 FG
       
OIBA 170900Z 30004KT CAVOK 31/25 Q1014
OIAG 170800Z 14008KT CAVOK 24/20 Q1020
OIAW 170900Z 31006KT CAVOK 24/18 Q1019
TAF OIAW 170530Z 1706/1812 31004MPS 7000 NSC 
     BECMG 1718/1720 3000 BR 
     TEMPO 1722/1723 1000 FG
       
OIHR 170900Z 03004KT 0700 FG VV/// 05/05 Q1026
OITL 170851Z 21010KT 9999 FEW030 SCT180 15/05 Q1021
OIKB 170900Z 20010KT 6000 BKN100 30/20 Q1014 A2995 NOSIG
TAF OIKB 170530Z 1706/1812 15004MPS 7000 FEW030 SCT100 
     TEMPO 1709/1715 24008MPS 5000 SA FEW025TCU SCT030 SCT100 
     BECMG 1718/1720 5000 BR 
     TEMPO 1721/1803 3000 SCT030 
     BECMG 1704/1706 7000 FEW030 
     TEMPO 1810/1812 24007MPS
       
OIBL 170900Z 26010KT 7000 FEW045 BKN090 30/22 Q1015
OIMB 170900Z 35014KT 9999 SCT035TCU FEW035 19/04 Q1021
OIMN 170900Z 27004KT 8000 FEW030 SCT090 14/06 Q1022
OIBB 170850Z 32012KT 7000 FEW015 24/19 Q1018 A3007
OIKQ 170900Z 23010KT 4000 HZ NSC 30/23 Q1014
OIFM 170900Z 33004KT 5000 HZ NSC 14/06 Q1024 A3025
TAF OIFM 170530Z 1706/1812 32004MPS 3000 BR NSC 
     BECMG 178/179 7000 NSC 
     BECMG 1721/1723 4000 BR 
     TEMPO 1727/1803 0800 FG
       
OISF 170900Z 16006KT 9999 FEW040TCU 21/11 Q1021
OIAH 170900Z 00000KT 9999 FEW040 24/15 Q1021
OIIK 170900Z 19004KT 9999 FEW030 14/08 Q1022
OING 170900Z 00000KT 9999 FEW045 21/10 Q1022
OIHH 170900Z 08002KT 9999 SCT035 13/05 Q1024
OICI 170900Z 10002KT 9999 FEW040 17/06 Q1025 A3030
TAF OICI 170530Z 1706/1812 14004MPS CAVOK
       
OIZI 170900Z 24008KT CAVOK 30/07 Q1016
OIZJ 170900Z 28012KT 6000 FEW025CB BKN170 29/22 Q1012
OINE 170900Z 00000KT 8000 FEW100 19/09 Q1020
OIKK 170900Z 25014G24KT 9999 SCT040 20/M04 Q1024 A3025
TAF OIKK 170530Z 1706/1812 23004MPS 7000 FEW040 
     TEMPO 1709/1714 29008MPS FEW035CB SCT040 SCT100
       
OIBQ 170900Z 30016KT 9999 FEW040 24/21 Q1018
OICK 170850Z 24004KT 9999 SCT035 15/10 Q1024
OIBK 170900Z 28014KT CAVOK 30/21 Q1015
TAF OIBK 170530Z 1706/1812 28005MPS 7000 FEW035 SCT100 
     BECMG 1708/1709 28007MPS 
     TEMPO 1709/1716 28008G12MPS 5000 SA FEW030CB SCT035 SCT100 
     TEMPO 1806/1812 28008G12MPS 5000 SA
       
OISR 170900Z 30004KT CAVOK 31/14 Q1018
OISL 170900Z 31006KT 9999 FEW040 SCT100 28/12 Q1018
TAF OISL 170530Z 1706/1812 16003MPS 7000 FEW040 SCT100 
     TEMPO 1709/1714 31007MPS FEW035CB SCT040 BKN100
       
OIBV 170800Z 30010KT 5000 HZ FEW030 SCT200 29/24 Q1016
OIAM 170900Z 32012KT 7000 SCT030 23/19 Q1019
OIMM 170900Z 05004KT 7000 FEW035 SCT190 16/08 Q1020 A3013
TAF OIMM 170530Z 1706/1812 05004MPS 7000 FEW040 
     TEMPO 1710/1714 12007MPS 
     BECMG 1718/1720 4000 BR 
     TEMPO 1723/1803 0800 FG 
     BECMG 1706/1707 7000 FEW040 SCT100
       
OIII 170900Z 27004KT 4500 HZ FEW035 16/05 Q1022 A3018 NOSIG
TAF OIII 170530Z 1706/1812 31004MPS 6000 HZ NSC 
     BECMG 1707/178 7000 NSC 
     TEMPO 1710/1714 31007MPS 
     BECMG 1721/1723 5000 BR FEW035
       
OINN 170900Z 04004KT 9999 FEW020TCU 18/13 Q1020
OITP 170900Z 30008KT 8000 BKN025 FEW030CB BKN080 12/11 Q1022
OIIP 170900Z 28014KT 8000 FEW040 12/05 Q1022
OINR 170900Z 08006KT 9999 SCT025 18/14 Q1019
OIGG 170900Z 00000KT 9999 FEW020 SCT025 17/14 Q1021
OITM 170900Z 28004KT 9999 SCT034 15/04 Q1023
OICS 170900Z 18002KT 9999 SCT035TCU 14/06 Q1024
OIMC 170900Z AUTO 29006KT //// // ////// 14/06 Q1022
OINZ 170900Z 02006KT 9999 FEW030 20/12 Q1020
OIIS 170800Z 19008KT CAVOK 14/05 Q1022
OICC 170900Z 00000KT 6000 SCT030TCU 15/07 Q1024 A3027 NOSIG
OIAI 170800Z 33002KT CAVOK 22/17 Q1020
OIFS 170900Z 22008KT 9999 FEW040 14/02 Q1026
OISS 170900Z 10004KT 6000 FEW035 SCT090 18/13 Q1024 A3024
TAF OISS 170530Z 1706/1812 18005MPS 6000 6000 FEW035 
     BECMG 1706/1707 7000 NSC
       
OIBS 170900Z 30012KT CAVOK 29/23 Q1016
OIMT 170900Z AUTO 30004KT //// // ////// 22/04 Q1020
OITT 170900Z 23008KT 9999 SCT035TCU 14/04 Q1024 A3025 NOSIG
TAF OITT 170530Z 1706/1812 04004MPS 7000 FEW035 SCT100
       
OIBJ 170900Z 34004KT CAVOK 28/15 Q1020
OITR 170900Z 22004KT 9999 FEW035 15/00 Q1022
TAF OITR 170530Z 1706/1812 03003MPS 8000 FEW040 SCT100 
     TEMPO 1709/1712 FEW035CB SCT040 SCT100
       
OISY 170900Z 16006KT 9000 FEW040 17/02 Q1026
OIYY 170900Z 31004KT 8000 FEW040 18/05 Q1024
OIZB 170900Z 01006KT CAVOK 25/M01 Q1017
OIZH 170900Z 35012KT 9999 FEW040 BKN200 24/03 Q1020 A3013 NOSIG
TAF OIZH 170530Z 1706/1812 34004MPS 8000 NSC 
     TEMPO 1709/1714 030007MPS FEW035TCU SCT040 
     TEMPO 1809/1812 030007MPS
       
OITZ 170900Z 26002KT 9999 FEW030CB FEW035 13/03 Q1024